Time;durP1;ratioP1;P1;durP2;ratioP2;P2;SDS_P1;SDS_P2;PMS_P1;PMS_P2;Temp;Humidity;BMP_temperature;BMP_pressure;BME280_temperature;BME280_humidity;BME280_pressure;Samples;Min_cycle;Max_cycle;Signal;HPM_P1;HPM_P2
2021/03/06 00:00:35;;;;;;;22.65;9.10;;;;;;;-1.01;76.32;101772.55;1660910;84;25794;-78
2021/03/06 00:03:05;;;;;;;19.42;7.30;;;;;;;-0.99;76.28;101768.91;1665908;83;26377;-77
2021/03/06 00:05:32;;;;;;;21.80;9.53;;;;;;;-0.96;75.88;101770.03;1638028;84;25850;-78
2021/03/06 00:07:59;;;;;;;21.05;9.00;;;;;;;-1.00;75.83;101780.80;1664809;84;28080;-77
2021/03/06 00:10:27;;;;;;;21.52;10.08;;;;;;;-1.04;75.71;101783.22;1683194;83;25815;-78
2021/03/06 00:12:54;;;;;;;25.55;9.83;;;;;;;-1.07;75.88;101784.23;1643109;83;25758;-79
2021/03/06 00:15:27;;;;;;;22.52;10.18;;;;;;;-1.05;75.99;101788.11;1658813;83;25812;-79
2021/03/06 00:17:54;;;;;;;25.88;9.85;;;;;;;-1.07;75.87;101781.59;1661600;83;26529;-77
2021/03/06 00:20:23;;;;;;;24.98;9.98;;;;;;;-1.06;75.95;101783.31;1686703;83;27549;-78
2021/03/06 00:22:50;;;;;;;27.67;11.33;;;;;;;-1.06;76.01;101786.39;1645396;83;26294;-78
2021/03/06 00:25:19;;;;;;;26.12;12.15;;;;;;;-1.13;76.00;101786.34;1658982;85;25804;-78
2021/03/06 00:27:46;;;;;;;28.52;12.28;;;;;;;-1.13;76.18;101791.59;1648373;84;25921;-78
2021/03/06 00:30:17;;;;;;;31.33;12.47;;;;;;;-1.13;76.13;101783.25;1676646;85;25884;-78
2021/03/06 00:32:45;;;;;;;27.60;11.35;;;;;;;-1.13;76.13;101783.25;1621152;85;27536;-76
2021/03/06 00:35:14;;;;;;;27.48;13.00;;;;;;;-1.20;76.15;101782.37;1642740;85;25824;-82
2021/03/06 00:37:41;;;;;;;31.17;15.93;;;;;;;-1.32;76.42;101793.52;1652780;83;25841;-80
2021/03/06 00:40:11;;;;;;;26.60;13.20;;;;;;;-1.32;76.42;101793.52;1676019;83;25780;-76
2021/03/06 00:42:38;;;;;;;28.65;14.70;;;;;;;-1.41;76.47;101784.34;1665583;85;25806;-78
2021/03/06 00:45:07;;;;;;;32.67;14.98;;;;;;;-1.43;76.62;101779.64;1646698;85;28443;-77
2021/03/06 00:47:36;;;;;;;28.20;13.62;;;;;;;-1.43;76.62;101779.64;1661472;83;25782;-78
2021/03/06 00:50:30;;;;;;;32.10;16.02;;;;;;;-1.40;76.49;101779.49;1699107;83;25920;-78
2021/03/06 00:52:58;;;;;;;37.90;17.30;;;;;;;-1.40;76.49;101779.49;1650386;85;26498;-76
2021/03/06 00:55:26;;;;;;;29.67;15.00;;;;;;;-1.37;76.60;101779.80;1645496;83;25756;-77
2021/03/06 00:57:53;;;;;;;31.33;14.98;;;;;;;-1.43;76.75;101767.00;1662564;83;27076;-79
2021/03/06 01:00:22;;;;;;;33.02;15.72;;;;;;;-1.35;76.78;101782.73;1680113;83;25727;-78
2021/03/06 01:02:50;;;;;;;31.90;15.38;;;;;;;-1.35;76.78;101777.48;1635012;83;26441;-77
2021/03/06 01:05:17;;;;;;;32.78;16.85;;;;;;;-1.35;76.79;101783.19;1642216;85;25792;-77
2021/03/06 01:07:44;;;;;;;31.23;16.70;;;;;;;-1.38;76.69;101775.45;1656731;85;25822;-76
2021/03/06 01:10:17;;;;;;;38.35;16.05;;;;;;;-1.41;76.82;101776.95;1709408;83;27544;-78
2021/03/06 01:12:45;;;;;;;32.85;15.75;;;;;;;-1.43;76.68;101779.64;1653871;83;25803;-78
2021/03/06 01:15:13;;;;;;;38.38;18.95;;;;;;;-1.43;76.75;101785.39;1637267;85;25787;-78
2021/03/06 01:17:40;;;;;;;38.95;17.07;;;;;;;-1.49;76.71;101784.38;1660433;83;26370;-77
2021/03/06 01:20:09;;;;;;;36.17;16.67;;;;;;;-1.49;76.71;101784.38;1654944;83;26431;-76
2021/03/06 01:22:38;;;;;;;31.68;16.30;;;;;;;-1.52;76.87;101774.05;1655219;83;27569;-77
2021/03/06 01:25:07;;;;;;;39.92;16.85;;;;;;;-1.52;76.87;101774.05;1620895;85;25970;-78
2021/03/06 01:27:34;;;;;;;31.47;16.87;;;;;;;-1.50;76.79;101768.24;1418201;85;10002083;-79
2021/03/06 01:30:02;;;;;;;35.23;17.27;;;;;;;-1.45;76.79;101779.37;1668364;83;25943;-78
2021/03/06 01:32:30;;;;;;;36.68;17.65;;;;;;;-1.44;76.78;101780.59;1645429;83;26089;-78
2021/03/06 01:34:57;;;;;;;30.23;16.32;;;;;;;-1.44;76.56;101781.05;1649378;84;25740;-77
2021/03/06 01:37:25;;;;;;;43.83;18.40;;;;;;;-1.50;76.65;101780.92;1661067;83;25845;-77
2021/03/06 01:39:52;;;;;;;34.30;17.27;;;;;;;-1.43;76.66;101782.76;1683913;83;26112;-77
2021/03/06 01:42:21;;;;;;;28.57;16.02;;;;;;;-1.42;76.67;101782.67;1637279;83;27551;-78
2021/03/06 01:44:50;;;;;;;30.23;15.60;;;;;;;-1.42;76.52;101776.09;1664972;83;25791;-79
2021/03/06 01:47:19;;;;;;;33.98;16.30;;;;;;;-1.42;76.52;101776.09;1657773;85;26050;-78
2021/03/06 01:49:46;;;;;;;35.50;16.87;;;;;;;-1.41;76.32;101783.03;1688411;83;25746;-78
2021/03/06 01:52:15;;;;;;;29.63;16.15;;;;;;;-1.46;76.33;101782.91;1624657;85;25742;-81
2021/03/06 01:54:44;;;;;;;31.27;15.80;;;;;;;-1.49;76.39;101787.00;1647525;85;27547;-77
2021/03/06 01:57:12;;;;;;;33.73;16.40;;;;;;;-1.47;76.50;101783.83;1652801;85;25812;-78
2021/03/06 01:59:40;;;;;;;31.87;16.35;;;;;;;-1.49;76.69;101774.72;1644118;85;25817;-77
2021/03/06 02:02:07;;;;;;;29.35;16.35;;;;;;;-1.49;76.69;101774.72;1640045;86;26482;-78
2021/03/06 02:04:35;;;;;;;31.68;16.65;;;;;;;-1.45;76.60;101776.25;1657709;84;25740;-79
2021/03/06 02:07:03;;;;;;;32.28;16.42;;;;;;;-1.44;76.50;101779.73;1656544;84;27088;-78
2021/03/06 02:09:30;;;;;;;33.95;16.97;;;;;;;-1.46;76.50;101783.77;1674326;84;26093;-78
2021/03/06 02:12:39;;;;;;;38.35;17.92;;;;;;;-1.51;76.39;101773.95;1654947;84;33837;-78
2021/03/06 02:15:41;;;;;;;33.80;17.37;;;;;;;-1.46;76.35;101783.77;1652806;84;26439;-77
2021/03/06 02:18:16;;;;;;;33.05;16.90;;;;;;;-1.45;76.31;101790.70;1657103;84;25343;-77
2021/03/06 02:20:59;;;;;;;35.63;16.17;;;;;;;-1.44;76.18;101787.62;1673421;84;28438;-78
2021/03/06 02:24:05;;;;;;;33.15;18.27;;;;;;;-1.46;76.09;101795.59;1640489;84;25887;-79
2021/03/06 02:26:50;;;;;;;31.85;17.40;;;;;;;-1.46;76.09;101795.59;1652125;84;25728;-78
2021/03/06 02:29:43;;;;;;;34.25;17.30;;;;;;;-1.49;76.17;101800.14;1655693;84;25937;-78
2021/03/06 02:32:21;;;;;;;33.28;16.75;;;;;;;-1.58;75.79;101799.70;1689191;84;26213;-77
2021/03/06 02:35:05;;;;;;;30.45;17.17;;;;;;;-1.74;76.29;101799.27;1656713;83;27106;-80
2021/03/06 02:37:38;;;;;;;34.08;16.42;;;;;;;-1.74;76.29;101799.27;1630642;85;26148;-78
2021/03/06 02:40:08;;;;;;;35.28;16.90;;;;;;;-1.77;76.12;101804.21;1700507;83;25846;-78
2021/03/06 02:42:37;;;;;;;33.85;17.67;;;;;;;-1.81;76.27;101797.88;1675393;84;26432;-78
2021/03/06 02:45:07;;;;;;;39.38;17.80;;;;;;;-1.80;76.41;101803.53;1629800;84;26248;-78
2021/03/06 02:47:35;;;;;;;34.23;16.37;;;;;;;-1.81;76.48;101802.67;1656779;84;28470;-78
2021/03/06 02:50:08;;;;;;;32.88;16.55;;;;;;;-1.82;76.36;101809.33;1653868;84;25803;-78
2021/03/06 02:52:35;;;;;;;36.85;16.42;;;;;;;-1.86;76.14;101807.79;1676853;84;25784;-78
2021/03/06 02:55:06;;;;;;;34.70;16.23;;;;;;;-1.89;76.22;101816.67;1658349;84;25917;-76
2021/03/06 02:58:05;;;;;;;33.78;16.35;;;;;;;-1.87;76.10;101813.95;1669102;84;25959;-79
2021/03/06 03:00:46;;;;;;;35.73;17.10;;;;;;;-1.85;76.43;101821.29;1667976;84;27322;-78
2021/03/06 03:03:43;;;;;;;;;;;;;;;-1.88;76.44;101819.66;1695710;83;25887;-80
2021/03/06 03:06:24;;;;;;;32.75;15.40;;;;;;;-1.90;76.52;101820.66;1710006;83;25883;-78
2021/03/06 03:09:28;;;;;;;34.65;16.07;;;;;;;-1.96;76.49;101832.80;1707878;81;25829;-76
2021/03/06 03:12:16;;;;;;;30.85;14.25;;;;;;;-2.01;76.51;101828.26;1669743;84;25738;-79
2021/03/06 03:14:58;;;;;;;32.73;15.95;;;;;;;-2.09;76.50;101819.89;1665979;84;27544;-78
2021/03/06 03:17:37;;;;;;;33.45;16.90;;;;;;;-2.07;76.55;101828.53;1698139;82;25772;-78
2021/03/06 03:20:09;;;;;;;33.20;16.12;;;;;;;-2.08;76.45;101830.80;1733558;81;25902;-78
2021/03/06 03:22:40;;;;;;;33.78;16.45;;;;;;;-2.09;76.61;101836.50;1687922;81;25846;-76
2021/03/06 03:25:11;;;;;;;33.10;17.57;;;;;;;-2.08;76.54;101838.67;1704638;81;26172;-79
2021/03/06 03:27:41;;;;;;;31.80;16.07;;;;;;;-2.09;76.58;101843.06;1701519;81;27539;-78
2021/03/06 03:30:13;;;;;;;33.83;16.60;;;;;;;-2.07;76.59;101838.58;1693711;83;26420;-79
2021/03/06 03:32:44;;;;;;;33.38;16.73;;;;;;;-2.04;76.43;101844.15;1686449;84;25787;-76
2021/03/06 03:35:14;;;;;;;;;;;;;;;-2.02;76.44;101847.55;1652370;84;25883;-77
2021/03/06 03:37:44;;;;;;;33.03;15.57;;;;;;;-2.05;76.33;101843.78;1680693;84;25941;-78
2021/03/06 03:40:14;;;;;;;33.37;16.33;;;;;;;-2.09;76.35;101851.39;1699347;83;28423;-77
2021/03/06 03:42:42;;;;;;;38.58;16.85;;;;;;;-2.09;76.42;101854.88;1694673;82;26097;-77
2021/03/06 03:45:12;;;;;;;33.25;16.48;;;;;;;-2.13;76.16;101859.03;1686822;82;25743;-78
2021/03/06 03:47:42;;;;;;;39.27;17.50;;;;;;;-2.15;76.44;101857.80;1691654;84;25726;-78
2021/03/06 03:50:12;;;;;;;29.90;17.60;;;;;;;-2.15;76.49;101856.95;1692150;84;25332;-80
2021/03/06 03:52:44;;;;;;;34.78;16.32;;;;;;;-2.17;76.39;101860.97;1667843;83;28995;-78
2021/03/06 03:55:13;;;;;;;34.10;15.23;;;;;;;-2.23;76.45;101861.73;1676609;82;26603;-77
2021/03/06 03:57:42;;;;;;;36.88;16.15;;;;;;;-2.26;76.52;101861.41;1681769;82;26126;-77
2021/03/06 04:00:13;;;;;;;37.75;16.40;;;;;;;-2.27;76.55;101866.74;1714907;82;25763;-78
2021/03/06 04:02:41;;;;;;;35.30;15.25;;;;;;;-2.26;76.57;101867.11;1669853;82;26042;-77
2021/03/06 04:05:11;;;;;;;30.70;14.68;;;;;;;-2.28;76.54;101870.27;1692127;82;27593;-77
2021/03/06 04:07:51;;;;;;;30.53;12.97;;;;;;;-2.29;76.62;101863.34;1669884;82;25799;-77
2021/03/06 04:10:21;;;;;;;26.50;12.40;;;;;;;-2.32;76.53;101868.27;1712110;82;25770;-78
2021/03/06 04:12:50;;;;;;;32.10;13.90;;;;;;;-2.36;76.59;101872.83;1655379;82;26416;-78
2021/03/06 04:15:20;;;;;;;30.08;13.50;;;;;;;-2.33;76.73;101877.05;1701065;82;26411;-77
2021/03/06 04:17:48;;;;;;;27.20;13.22;;;;;;;-2.29;76.70;101876.47;1673048;82;27337;-77
2021/03/06 04:20:20;;;;;;;23.10;11.95;;;;;;;-2.28;76.50;101879.45;1705952;82;26066;-79
2021/03/06 04:22:48;;;;;;;25.43;12.45;;;;;;;-2.29;76.37;101883.03;1681951;82;25855;-77
2021/03/06 04:25:16;;;;;;;29.10;12.82;;;;;;;-2.30;76.35;101888.73;1669114;82;25627;-79
2021/03/06 04:27:43;;;;;;;25.02;13.40;;;;;;;-2.30;76.32;101883.94;1678425;82;25820;-78
2021/03/06 04:30:12;;;;;;;25.97;11.30;;;;;;;-2.29;76.32;101880.41;1706186;82;28666;-76
2021/03/06 04:32:40;;;;;;;24.18;12.10;;;;;;;-2.29;76.37;101887.82;1650831;85;25877;-78
2021/03/06 04:35:10;;;;;;;28.30;12.45;;;;;;;-2.28;76.22;101889.50;1652691;84;25903;-78
2021/03/06 04:37:38;;;;;;;22.27;10.40;;;;;;;-2.28;76.35;101895.20;1652908;83;25804;-77
2021/03/06 04:40:09;;;;;;;23.20;11.15;;;;;;;-2.29;76.57;101885.20;1658985;83;25950;-77
2021/03/06 04:42:37;;;;;;;;;;;;;;;-2.28;76.61;101890.81;1632436;83;27553;-78
2021/03/06 04:45:07;;;;;;;21.48;9.73;;;;;;;-2.27;76.80;101900.86;1656552;85;25792;-78
2021/03/06 04:47:34;;;;;;;22.05;10.00;;;;;;;-2.27;76.80;101900.86;1651356;83;25968;-78
2021/03/06 04:50:01;;;;;;;25.10;10.05;;;;;;;-2.29;76.97;101891.75;1665890;83;26025;-78
2021/03/06 04:52:29;;;;;;;22.87;9.98;;;;;;;-2.28;77.02;101888.19;1612484;85;25792;-78
2021/03/06 04:54:56;;;;;;;18.42;8.73;;;;;;;-2.27;77.06;101895.61;1656040;83;28333;-79
2021/03/06 04:57:25;;;;;;;18.85;9.90;;;;;;;-2.32;77.31;101900.22;1666469;83;26048;-77
2021/03/06 04:59:52;;;;;;;21.93;10.72;;;;;;;-2.38;77.59;101898.75;1662104;83;25716;-78
2021/03/06 05:02:19;;;;;;;22.50;11.63;;;;;;;-2.39;77.75;101900.97;1648002;83;26938;-77
2021/03/06 05:04:47;;;;;;;23.32;10.82;;;;;;;-2.39;77.87;101900.52;1660455;83;25729;-79
2021/03/06 05:07:14;;;;;;;24.47;10.82;;;;;;;-2.34;77.86;101902.92;1660448;83;27430;-78
2021/03/06 05:09:42;;;;;;;27.22;12.37;;;;;;;-2.28;77.89;101897.83;1654485;85;26422;-78
2021/03/06 05:12:09;;;;;;;22.50;11.38;;;;;;;-2.28;77.89;101897.83;1651526;83;26034;-80
2021/03/06 05:14:37;;;;;;;26.95;11.83;;;;;;;-2.24;77.88;101900.69;1651753;85;26088;-78
2021/03/06 05:17:04;;;;;;;16.93;8.78;;;;;;;-2.25;77.94;101909.50;1647854;83;25855;-78
2021/03/06 05:19:31;;;;;;;24.63;11.28;;;;;;;-2.24;77.96;101917.30;1633625;83;27526;-80
2021/03/06 05:21:59;;;;;;;23.27;10.43;;;;;;;-2.25;77.92;101912.98;1664286;85;25746;-80
2021/03/06 05:24:26;;;;;;;21.23;11.35;;;;;;;-2.25;77.85;101916.92;1658363;83;25823;-78
2021/03/06 05:29:35;;;;;;;24.37;10.75;;;;;;;-2.24;77.94;101912.50;1834277;77;26383;-77
2021/03/06 05:32:05;;;;;;;28.57;14.68;;;;;;;-2.29;78.11;101911.44;1798682;78;26071;-78
2021/03/06 05:34:34;;;;;;;20.40;10.58;;;;;;;-2.28;78.18;101909.19;1739051;79;27507;-80
2021/03/06 05:37:02;;;;;;;23.60;11.88;;;;;;;-2.26;78.30;101916.52;1774060;79;25945;-79
2021/03/06 05:39:29;;;;;;;21.27;10.90;;;;;;;-2.23;78.42;101916.84;1790622;79;26472;-79
2021/03/06 05:41:57;;;;;;;21.07;11.20;;;;;;;-2.21;78.39;101913.68;1784246;79;25940;-77
2021/03/06 05:44:26;;;;;;;30.57;12.30;;;;;;;-2.18;78.42;101914.38;1718464;79;25893;-79
2021/03/06 05:46:57;;;;;;;30.17;13.10;;;;;;;-2.14;78.54;101918.58;1773090;79;28450;-79
2021/03/06 05:49:24;;;;;;;;;;;;;;;-2.10;78.51;101910.94;1763814;79;25816;-79
2021/03/06 05:51:52;;;;;;;22.22;10.20;;;;;;;-2.10;78.48;101914.02;1770888;79;26501;-78
2021/03/06 05:54:21;;;;;;;25.40;11.70;;;;;;;-2.11;78.58;101907.05;1764705;79;25823;-78
2021/03/06 05:56:50;;;;;;;24.35;11.45;;;;;;;-2.11;78.58;101907.05;1770651;79;26054;-79
2021/03/06 05:59:19;;;;;;;28.55;11.12;;;;;;;-2.01;78.65;101910.95;1790211;79;27073;-78
2021/03/06 06:01:48;;;;;;;18.67;10.70;;;;;;;-1.97;78.66;101921.69;1746215;79;25922;-78
2021/03/06 06:04:17;;;;;;;24.63;10.88;;;;;;;-1.94;78.66;101923.69;1771149;79;25752;-79
2021/03/06 06:06:45;;;;;;;27.20;11.45;;;;;;;-1.90;78.65;101929.63;1768468;79;26135;-78
2021/03/06 06:09:13;;;;;;;26.95;10.75;;;;;;;-1.86;78.61;101937.28;1756446;79;25859;-78
2021/03/06 06:11:40;;;;;;;22.80;10.40;;;;;;;-1.80;78.61;101937.02;1751434;80;27997;-78
2021/03/06 06:14:08;;;;;;;23.45;11.22;;;;;;;-1.73;78.65;101933.59;1705106;81;25707;-76
2021/03/06 06:16:36;;;;;;;24.77;10.88;;;;;;;-1.67;78.62;101944.64;1768303;80;25837;-79
2021/03/06 06:19:04;;;;;;;28.25;12.35;;;;;;;-1.65;78.67;101945.91;1719453;81;25609;-77
2021/03/06 06:21:47;;;;;;;28.60;11.70;;;;;;;-1.65;78.67;101945.91;1682761;82;25761;-77
2021/03/06 06:24:23;;;;;;;27.17;12.85;;;;;;;-1.61;78.73;101947.45;1721649;81;28441;-78
2021/03/06 06:26:58;;;;;;;45.23;21.17;;;;;;;-1.49;78.75;101956.02;1704020;82;26435;-77
2021/03/06 06:29:45;;;;;;;39.38;18.48;;;;;;;-1.44;78.54;101958.42;1747935;81;25762;-78
2021/03/06 06:32:16;;;;;;;37.73;19.67;;;;;;;-1.44;78.54;101958.42;1682018;82;25936;-79
2021/03/06 06:35:06;;;;;;;44.67;21.37;;;;;;;-1.47;78.52;101951.98;1649233;82;25965;-78
2021/03/06 06:37:34;;;;;;;33.02;17.30;;;;;;;-1.44;78.58;101962.36;1699497;82;27573;-80
2021/03/06 06:40:19;;;;;;;38.05;18.27;;;;;;;-1.41;78.67;101964.84;1746434;81;25788;-78
2021/03/06 06:42:55;;;;;;;38.60;18.35;;;;;;;-1.29;78.66;101974.73;1838466;77;25836;-78
2021/03/06 06:45:24;;;;;;;34.08;17.75;;;;;;;-1.29;78.66;101969.47;1803412;78;26053;-77
2021/03/06 06:47:53;;;;;;;32.28;15.15;;;;;;;-1.24;78.57;101978.81;1729933;78;27603;-77
2021/03/06 06:50:32;;;;;;;26.82;13.43;;;;;;;-1.24;78.46;101977.50;1754825;78;25838;-77
2021/03/06 06:53:01;;;;;;;26.50;13.95;;;;;;;-1.18;78.27;101978.98;1806473;78;25606;-78
2021/03/06 06:55:40;;;;;;;26.02;13.35;;;;;;;-1.18;78.27;101978.98;1766737;78;25654;-79
2021/03/06 06:58:08;;;;;;;28.07;12.47;;;;;;;-1.15;78.50;101975.72;1729749;80;25793;-78
2021/03/06 07:00:36;;;;;;;27.27;13.98;;;;;;;-1.09;78.34;101981.97;1717919;81;28691;-78
2021/03/06 07:03:05;;;;;;;28.17;14.38;;;;;;;-1.09;78.34;101981.97;1678313;82;25900;-78
2021/03/06 07:05:36;;;;;;;30.65;13.85;;;;;;;-1.06;78.46;101976.57;1722636;81;26578;-80
2021/03/06 07:08:09;;;;;;;27.48;12.20;;;;;;;-0.95;78.63;101986.53;1714137;82;25843;-78
2021/03/06 07:10:39;;;;;;;22.07;11.30;;;;;;;-0.86;78.54;101990.00;1717725;81;26182;-78
2021/03/06 07:13:10;;;;;;;26.33;13.15;;;;;;;-0.82;78.64;101991.08;1733615;81;28231;-77
2021/03/06 07:15:40;;;;;;;26.95;13.68;;;;;;;-0.78;78.65;101991.77;1733570;81;26048;-78
2021/03/06 07:18:19;;;;;;;31.15;15.50;;;;;;;-0.73;78.44;101994.16;1702480;81;25805;-78
2021/03/06 07:20:49;;;;;;;26.95;14.25;;;;;;;-0.77;78.14;101986.41;1707766;81;25898;-77
2021/03/06 07:23:26;;;;;;;28.45;13.62;;;;;;;-0.75;77.99;101988.98;1673854;83;25842;-78
2021/03/06 07:25:57;;;;;;;27.30;14.43;;;;;;;-0.75;78.25;101978.91;1705254;82;27618;-79
2021/03/06 07:28:25;;;;;;;;;;;;;;;-0.77;78.03;101977.20;1653822;82;25911;-78
2021/03/06 07:30:58;;;;;;;29.15;14.40;;;;;;;-0.74;77.95;101985.86;1714969;81;26465;-79
2021/03/06 07:33:26;;;;;;;25.37;13.20;;;;;;;-0.77;78.07;101985.09;1693691;81;25937;-79
2021/03/06 07:35:57;;;;;;;28.62;15.70;;;;;;;-0.75;78.01;101986.35;1671617;80;25825;-78
2021/03/06 07:38:25;;;;;;;39.42;19.45;;;;;;;-0.66;78.13;101992.91;1688840;80;28533;-77
2021/03/06 07:41:00;;;;;;;55.45;30.92;;;;;;;-0.60;78.21;101988.17;1724078;80;25693;-79
2021/03/06 07:43:37;;;;;;;34.18;19.25;;;;;;;-0.53;78.15;101990.83;1729390;80;25935;-79
2021/03/06 07:46:06;;;;;;;81.78;48.85;;;;;;;-0.52;77.97;101996.50;1693893;81;26266;-78
2021/03/06 07:48:51;;;;;;;88.05;55.00;;;;;;;-0.51;77.84;101990.78;1768199;80;25309;-79
2021/03/06 07:51:22;;;;;;;60.38;37.40;;;;;;;-0.49;77.97;101991.05;1733323;81;28405;-77
2021/03/06 07:53:52;;;;;;;34.58;17.70;;;;;;;-0.38;78.12;101990.47;1753697;80;25723;-79
2021/03/06 07:56:22;;;;;;;25.57;14.20;;;;;;;-0.34;77.97;101989.40;1735913;80;25827;-78
2021/03/06 07:58:54;;;;;;;30.75;14.83;;;;;;;-0.26;77.69;101995.09;1732383;80;25948;-79
2021/03/06 08:01:28;;;;;;;32.28;16.25;;;;;;;-0.19;77.95;101996.43;1744936;81;25758;-78
2021/03/06 08:03:56;;;;;;;28.52;15.15;;;;;;;-0.08;77.96;102003.28;1714495;82;27552;-78
2021/03/06 08:06:30;;;;;;;26.75;14.28;;;;;;;0.02;77.72;102000.54;1700421;82;26327;-78
2021/03/06 08:09:08;;;;;;;26.17;13.48;;;;;;;0.10;77.66;101998.78;1694154;81;26486;-78
2021/03/06 08:11:42;;;;;;;30.57;13.98;;;;;;;0.16;77.55;102006.33;1727159;81;26055;-77
2021/03/06 08:14:32;;;;;;;32.95;15.00;;;;;;;0.26;77.23;101998.28;1699625;82;25756;-78
2021/03/06 08:16:59;;;;;;;34.92;15.38;;;;;;;0.36;77.44;101994.20;1694235;82;28532;-78
2021/03/06 08:19:28;;;;;;;30.52;15.28;;;;;;;0.49;77.45;101993.40;1697407;82;25647;-80
2021/03/06 08:21:57;;;;;;;28.42;13.55;;;;;;;0.58;77.03;102000.78;1691372;82;25876;-78
2021/03/06 08:24:28;;;;;;;29.02;13.80;;;;;;;0.67;76.67;102002.03;1693106;82;25846;-78
2021/03/06 08:27:07;;;;;;;23.73;12.23;;;;;;;0.72;76.79;102003.48;1678233;82;25869;-78
2021/03/06 08:29:37;;;;;;;25.35;13.10;;;;;;;0.81;76.58;101995.50;1726061;82;27524;-78
2021/03/06 08:32:30;;;;;;;24.70;10.63;;;;;;;0.91;76.79;101994.00;1699024;82;25833;-78
2021/03/06 08:35:15;;;;;;;23.57;11.57;;;;;;;1.00;75.84;101996.56;1676970;82;25923;-78
2021/03/06 08:37:42;;;;;;;30.88;10.93;;;;;;;1.04;75.88;101994.98;1723637;80;26125;-78
2021/03/06 08:40:17;;;;;;;26.57;12.93;;;;;;;1.13;75.90;101985.66;1691190;81;25801;-78
2021/03/06 08:42:48;;;;;;;22.13;12.10;;;;;;;1.21;75.55;101993.95;1721973;82;27566;-79
2021/03/06 08:45:28;;;;;;;24.18;9.88;;;;;;;1.27;75.24;101990.47;1688371;83;26433;-79
2021/03/06 08:48:02;;;;;;;23.10;11.90;;;;;;;1.39;75.35;101991.52;1695909;82;25815;-78
2021/03/06 08:50:32;;;;;;;29.42;13.78;;;;;;;1.48;75.22;101993.58;1697436;82;26541;-78
2021/03/06 08:53:04;;;;;;;30.55;14.63;;;;;;;1.56;74.83;101993.97;1694281;83;32621;-79
2021/03/06 08:55:38;;;;;;;25.25;12.80;;;;;;;1.63;74.21;101991.30;1693965;82;27399;-79
2021/03/06 08:58:08;;;;;;;21.15;10.15;;;;;;;1.67;73.91;101990.66;1701352;82;26165;-78
2021/03/06 09:00:47;;;;;;;25.15;11.38;;;;;;;1.69;72.76;101988.77;1680600;82;26493;-78
2021/03/06 09:03:21;;;;;;;28.23;13.80;;;;;;;1.71;73.42;101990.34;1705093;83;26435;-77
2021/03/06 09:05:56;;;;;;;23.52;11.48;;;;;;;1.75;72.47;101985.27;1690068;83;25936;-78
2021/03/06 09:08:25;;;;;;;21.90;11.22;;;;;;;1.80;72.90;101984.48;1713521;82;27755;-78
2021/03/06 09:10:57;;;;;;;20.95;10.78;;;;;;;1.86;72.67;101988.05;1679931;82;26149;-78
2021/03/06 09:13:27;;;;;;;30.10;12.45;;;;;;;1.90;71.57;101984.30;1723253;82;25792;-77
2021/03/06 09:16:02;;;;;;;25.65;12.07;;;;;;;1.91;71.45;101982.02;1675096;82;25798;-76
2021/03/06 09:18:36;;;;;;;22.13;10.63;;;;;;;1.95;71.83;101968.98;1707372;82;25421;-78
2021/03/06 09:21:15;;;;;;;24.47;10.78;;;;;;;2.01;70.87;101974.37;1700087;82;27553;-79
2021/03/06 09:23:45;;;;;;;20.52;9.03;;;;;;;2.06;70.85;101973.11;1704301;82;26838;-78
2021/03/06 09:26:26;;;;;;;20.37;9.48;;;;;;;2.10;70.16;101975.92;1690778;82;25970;-77
2021/03/06 09:28:56;;;;;;;18.90;9.23;;;;;;;2.11;69.83;101979.42;1732878;82;25393;-77
2021/03/06 09:31:29;;;;;;;21.15;9.65;;;;;;;2.05;69.77;101978.00;1687513;82;26130;-78
2021/03/06 09:34:02;;;;;;;16.75;7.50;;;;;;;2.04;69.92;101971.51;1704952;82;27667;-77
2021/03/06 09:36:32;;;;;;;17.23;8.65;;;;;;;2.06;69.17;101968.30;1689386;82;26078;-77
2021/03/06 09:39:02;;;;;;;20.48;8.55;;;;;;;2.06;67.98;101967.83;1653273;82;26441;-77
2021/03/06 09:41:38;;;;;;;16.15;8.18;;;;;;;2.06;68.83;101966.97;1705562;81;35053;-78
2021/03/06 09:44:07;;;;;;;14.33;7.67;;;;;;;2.14;68.71;101972.14;1690740;83;25919;-78
2021/03/06 09:46:36;;;;;;;12.25;5.87;;;;;;;2.19;68.73;101963.91;1668594;83;27147;-76
2021/03/06 09:49:14;;;;;;;14.50;6.37;;;;;;;2.24;66.79;101965.79;1648234;83;25906;-78
2021/03/06 09:51:51;;;;;;;13.75;6.83;;;;;;;2.27;67.89;101962.46;1667018;83;25898;-79
2021/03/06 09:54:21;;;;;;;15.53;6.67;;;;;;;2.34;67.53;101959.80;1669298;83;25799;-76
2021/03/06 09:56:54;;;;;;;;;;;;;;;2.41;67.12;101960.24;1670481;83;25837;-78
2021/03/06 09:59:24;;;;;;;15.08;6.35;;;;;;;2.44;67.28;101968.45;1656531;83;27798;-78
2021/03/06 10:01:51;;;;;;;13.00;6.45;;;;;;;2.45;67.50;101965.70;1668703;83;25895;-79
2021/03/06 10:04:22;;;;;;;17.37;7.40;;;;;;;2.49;67.71;101971.62;1666287;83;25855;-77
2021/03/06 10:06:55;;;;;;;15.25;6.95;;;;;;;2.57;67.27;101969.30;1694841;83;26320;-79
2021/03/06 10:09:25;;;;;;;13.08;7.85;;;;;;;2.63;67.42;101971.57;1632307;83;26194;-79
2021/03/06 10:11:55;;;;;;;13.50;7.47;;;;;;;2.70;68.03;101965.75;1700678;82;27616;-79
2021/03/06 10:14:25;;;;;;;15.48;9.73;;;;;;;2.79;68.12;101965.14;1684247;83;25867;-76
2021/03/06 10:16:56;;;;;;;12.68;5.80;;;;;;;2.88;67.76;101971.14;1690797;83;26502;-78
2021/03/06 10:19:27;;;;;;;15.40;7.58;;;;;;;2.90;67.16;101978.96;1631447;83;25836;-76
2021/03/06 10:22:03;;;;;;;;;;;;;;;2.86;67.14;101974.36;1663753;83;25966;-78
2021/03/06 10:24:34;;;;;;;14.23;6.55;;;;;;;2.92;67.63;101967.33;1691837;81;27561;-78
2021/03/06 10:27:03;;;;;;;13.90;6.55;;;;;;;2.98;67.96;101961.61;1681479;83;26431;-78
2021/03/06 10:29:31;;;;;;;12.25;6.47;;;;;;;3.05;67.01;101973.48;1671483;83;25925;-76
2021/03/06 10:32:04;;;;;;;13.58;6.20;;;;;;;3.07;66.97;101968.07;1671129;83;26216;-76
2021/03/06 10:34:35;;;;;;;13.68;6.75;;;;;;;3.11;66.96;101974.38;1716983;83;26136;-76
2021/03/06 10:37:18;;;;;;;19.95;7.37;;;;;;;3.21;68.21;101967.12;1652508;83;26942;-75
2021/03/06 10:39:59;;;;;;;13.85;5.95;;;;;;;3.28;67.38;101969.70;1678846;83;26263;-75
2021/03/06 10:42:47;;;;;;;15.93;6.37;;;;;;;3.31;67.58;101965.53;1646685;84;25879;-75
2021/03/06 10:45:28;;;;;;;10.75;4.72;;;;;;;3.29;66.44;101962.14;1709415;82;25827;-76
2021/03/06 10:47:59;;;;;;;10.32;5.95;;;;;;;3.25;66.49;101956.69;1717457;81;26415;-77
2021/03/06 10:50:34;;;;;;;12.95;6.85;;;;;;;3.30;67.10;101959.84;1715132;82;27609;-78
2021/03/06 10:53:20;;;;;;;12.70;7.00;;;;;;;3.36;65.50;101959.45;1716265;82;26204;-82
2021/03/06 10:55:51;;;;;;;12.13;6.37;;;;;;;3.38;65.31;101954.38;1718828;82;25733;-79
2021/03/06 10:58:21;;;;;;;15.25;7.42;;;;;;;3.41;64.83;101958.63;1722161;82;25825;-77
2021/03/06 11:00:54;;;;;;;18.10;7.72;;;;;;;3.48;66.20;101956.77;1721419;82;26550;-78
2021/03/06 11:03:22;;;;;;;15.50;8.00;;;;;;;3.52;66.46;101945.47;1738486;80;27618;-79
2021/03/06 11:05:57;;;;;;;13.75;7.47;;;;;;;3.55;66.47;101946.59;1721582;82;25801;-78
2021/03/06 11:08:25;;;;;;;16.27;7.20;;;;;;;3.55;66.52;101939.97;1706455;82;26171;-78
2021/03/06 11:10:54;;;;;;;16.15;6.83;;;;;;;3.60;66.24;101931.20;1696481;82;25755;-78
2021/03/06 11:13:22;;;;;;;15.38;6.95;;;;;;;3.60;65.48;101930.73;1717165;81;25708;-78
2021/03/06 11:15:56;;;;;;;16.95;8.00;;;;;;;3.58;65.03;101924.69;1671106;82;28577;-80
2021/03/06 11:18:23;;;;;;;15.40;7.80;;;;;;;3.61;66.04;101917.01;1682414;82;25839;-77
2021/03/06 11:20:51;;;;;;;12.15;6.83;;;;;;;3.59;65.00;101917.60;1705356;81;25428;-77
2021/03/06 11:23:19;;;;;;;22.50;10.58;;;;;;;3.66;65.10;101910.88;1736412;80;25784;-78
2021/03/06 11:25:47;;;;;;;27.35;14.98;;;;;;;3.73;64.55;101912.14;1683252;82;25796;-80
2021/03/06 11:28:16;;;;;;;32.00;15.85;;;;;;;3.74;64.11;101906.72;1688216;82;27670;-78
2021/03/06 11:30:47;;;;;;;34.48;17.55;;;;;;;3.82;64.18;101904.38;1713733;82;26434;-79
2021/03/06 11:33:17;;;;;;;70.20;30.97;;;;;;;3.84;64.03;101897.16;1701546;82;26371;-78
2021/03/06 11:35:47;;;;;;;32.40;17.23;;;;;;;3.88;64.38;101897.30;1688075;83;25820;-78
2021/03/06 11:38:17;;;;;;;39.23;19.10;;;;;;;4.01;65.35;101898.57;1733838;81;25727;-78